sensor_id;sensor_type;location;lat;lon;timestamp;temperature;humidity
15143;DHT22;7672;50.834;6.286;2023-07-13T00:02:08;20.00;99.20
15143;DHT22;7672;50.834;6.286;2023-07-13T00:04:36;19.90;99.30
15143;DHT22;7672;50.834;6.286;2023-07-13T00:07:03;19.90;99.50
15143;DHT22;7672;50.834;6.286;2023-07-13T00:09:30;19.90;99.70
15143;DHT22;7672;50.834;6.286;2023-07-13T00:11:57;19.80;99.80
15143;DHT22;7672;50.834;6.286;2023-07-13T00:14:26;19.80;99.90
15143;DHT22;7672;50.834;6.286;2023-07-13T00:16:55;19.80;99.90
15143;DHT22;7672;50.834;6.286;2023-07-13T00:19:22;19.80;99.90
15143;DHT22;7672;50.834;6.286;2023-07-13T00:21:49;19.70;99.90
15143;DHT22;7672;50.834;6.286;2023-07-13T00:24:18;19.80;99.90
15143;DHT22;7672;50.834;6.286;2023-07-13T00:26:50;19.70;99.90
15143;DHT22;7672;50.834;6.286;2023-07-13T00:29:18;19.60;99.90
15143;DHT22;7672;50.834;6.286;2023-07-13T00:31:47;19.60;99.90
15143;DHT22;7672;50.834;6.286;2023-07-13T00:34:16;19.60;99.90
15143;DHT22;7672;50.834;6.286;2023-07-13T00:36:43;19.50;99.90
15143;DHT22;7672;50.834;6.286;2023-07-13T00:39:10;19.50;99.90
15143;DHT22;7672;50.834;6.286;2023-07-13T00:41:37;19.50;99.90
15143;DHT22;7672;50.834;6.286;2023-07-13T00:44:04;19.50;99.90
15143;DHT22;7672;50.834;6.286;2023-07-13T00:46:33;19.40;99.90
15143;DHT22;7672;50.834;6.286;2023-07-13T00:49:06;19.40;99.90
15143;DHT22;7672;50.834;6.286;2023-07-13T00:51:58;19.40;99.90
15143;DHT22;7672;50.834;6.286;2023-07-13T00:54:35;19.30;99.90
15143;DHT22;7672;50.834;6.286;2023-07-13T00:57:08;19.40;99.90
15143;DHT22;7672;50.834;6.286;2023-07-13T00:59:41;19.20;99.90
15143;DHT22;7672;50.834;6.286;2023-07-13T01:02:12;19.30;99.90
15143;DHT22;7672;50.834;6.286;2023-07-13T01:04:39;19.30;99.90
15143;DHT22;7672;50.834;6.286;2023-07-13T01:07:11;19.30;99.90
15143;DHT22;7672;50.834;6.286;2023-07-13T01:09:39;19.30;99.90
15143;DHT22;7672;50.834;6.286;2023-07-13T01:12:07;19.20;99.90
15143;DHT22;7672;50.834;6.286;2023-07-13T01:14:34;19.20;99.90
15143;DHT22;7672;50.834;6.286;2023-07-13T01:17:01;19.30;99.90
15143;DHT22;7672;50.834;6.286;2023-07-13T01:19:49;19.20;99.90
15143;DHT22;7672;50.834;6.286;2023-07-13T01:22:17;19.10;99.90
15143;DHT22;7672;50.834;6.286;2023-07-13T01:24:47;19.10;99.90
15143;DHT22;7672;50.834;6.286;2023-07-13T01:27:17;19.10;99.90
15143;DHT22;7672;50.834;6.286;2023-07-13T01:29:47;19.10;99.90
15143;DHT22;7672;50.834;6.286;2023-07-13T01:32:24;19.10;99.90
15143;DHT22;7672;50.834;6.286;2023-07-13T01:34:54;19.10;99.90
15143;DHT22;7672;50.834;6.286;2023-07-13T01:37:22;19.00;99.90
15143;DHT22;7672;50.834;6.286;2023-07-13T01:39:51;19.10;99.90
15143;DHT22;7672;50.834;6.286;2023-07-13T01:42:19;19.10;99.90
15143;DHT22;7672;50.834;6.286;2023-07-13T01:44:47;19.10;99.90
15143;DHT22;7672;50.834;6.286;2023-07-13T01:47:14;19.00;99.90
15143;DHT22;7672;50.834;6.286;2023-07-13T01:49:42;19.00;99.90
15143;DHT22;7672;50.834;6.286;2023-07-13T01:52:09;19.00;99.90
15143;DHT22;7672;50.834;6.286;2023-07-13T01:54:36;19.00;99.90
15143;DHT22;7672;50.834;6.286;2023-07-13T01:57:03;18.90;99.90
15143;DHT22;7672;50.834;6.286;2023-07-13T01:59:30;18.90;99.90
15143;DHT22;7672;50.834;6.286;2023-07-13T02:01:59;18.90;99.90
15143;DHT22;7672;50.834;6.286;2023-07-13T02:04:27;18.90;99.90
15143;DHT22;7672;50.834;6.286;2023-07-13T02:06:54;18.80;99.90
15143;DHT22;7672;50.834;6.286;2023-07-13T02:09:22;18.90;99.90
15143;DHT22;7672;50.834;6.286;2023-07-13T02:11:49;19.10;99.90
15143;DHT22;7672;50.834;6.286;2023-07-13T02:14:16;18.80;99.90
15143;DHT22;7672;50.834;6.286;2023-07-13T02:16:43;18.80;99.90
15143;DHT22;7672;50.834;6.286;2023-07-13T02:19:10;18.80;99.90
15143;DHT22;7672;50.834;6.286;2023-07-13T02:21:37;18.80;99.90
15143;DHT22;7672;50.834;6.286;2023-07-13T02:24:05;18.80;99.90
15143;DHT22;7672;50.834;6.286;2023-07-13T02:26:32;18.70;99.90
15143;DHT22;7672;50.834;6.286;2023-07-13T02:28:59;18.70;99.90
15143;DHT22;7672;50.834;6.286;2023-07-13T02:31:26;18.70;99.90
15143;DHT22;7672;50.834;6.286;2023-07-13T02:33:53;18.70;99.90
15143;DHT22;7672;50.834;6.286;2023-07-13T02:36:20;18.60;99.90
15143;DHT22;7672;50.834;6.286;2023-07-13T02:38:49;18.70;99.90
15143;DHT22;7672;50.834;6.286;2023-07-13T02:41:17;18.60;99.90
15143;DHT22;7672;50.834;6.286;2023-07-13T02:43:44;18.60;99.90
15143;DHT22;7672;50.834;6.286;2023-07-13T02:46:11;18.60;99.90
15143;DHT22;7672;50.834;6.286;2023-07-13T02:48:39;18.60;99.90
15143;DHT22;7672;50.834;6.286;2023-07-13T02:51:07;18.50;99.90
15143;DHT22;7672;50.834;6.286;2023-07-13T02:53:35;18.70;99.90
15143;DHT22;7672;50.834;6.286;2023-07-13T02:56:04;18.50;99.90
15143;DHT22;7672;50.834;6.286;2023-07-13T02:58:31;18.50;99.90
15143;DHT22;7672;50.834;6.286;2023-07-13T03:00:59;18.50;99.90
15143;DHT22;7672;50.834;6.286;2023-07-13T03:03:26;18.50;99.90
15143;DHT22;7672;50.834;6.286;2023-07-13T03:06:02;18.40;99.90
15143;DHT22;7672;50.834;6.286;2023-07-13T03:08:38;18.40;99.90
15143;DHT22;7672;50.834;6.286;2023-07-13T03:11:10;18.40;99.90
15143;DHT22;7672;50.834;6.286;2023-07-13T03:13:41;18.40;99.90
15143;DHT22;7672;50.834;6.286;2023-07-13T03:16:10;18.40;99.90
15143;DHT22;7672;50.834;6.286;2023-07-13T03:18:40;18.40;99.90
15143;DHT22;7672;50.834;6.286;2023-07-13T03:21:09;18.30;99.90
15143;DHT22;7672;50.834;6.286;2023-07-13T03:23:37;18.30;99.90
15143;DHT22;7672;50.834;6.286;2023-07-13T03:26:10;18.30;99.90
15143;DHT22;7672;50.834;6.286;2023-07-13T03:28:42;18.30;99.90
15143;DHT22;7672;50.834;6.286;2023-07-13T03:31:17;18.30;99.90
15143;DHT22;7672;50.834;6.286;2023-07-13T03:33:47;18.30;99.90
15143;DHT22;7672;50.834;6.286;2023-07-13T03:36:27;18.20;99.90
15143;DHT22;7672;50.834;6.286;2023-07-13T03:39:00;18.20;99.90
15143;DHT22;7672;50.834;6.286;2023-07-13T03:41:36;18.20;99.90
15143;DHT22;7672;50.834;6.286;2023-07-13T03:44:05;18.20;99.90
15143;DHT22;7672;50.834;6.286;2023-07-13T03:46:32;18.10;99.90
15143;DHT22;7672;50.834;6.286;2023-07-13T03:49:01;18.20;99.90
15143;DHT22;7672;50.834;6.286;2023-07-13T03:51:28;18.20;99.90
15143;DHT22;7672;50.834;6.286;2023-07-13T03:53:55;18.20;99.90
15143;DHT22;7672;50.834;6.286;2023-07-13T03:56:22;18.20;99.90
15143;DHT22;7672;50.834;6.286;2023-07-13T03:58:50;18.20;99.90
15143;DHT22;7672;50.834;6.286;2023-07-13T04:01:20;18.20;99.90
15143;DHT22;7672;50.834;6.286;2023-07-13T04:03:49;18.20;99.90
15143;DHT22;7672;50.834;6.286;2023-07-13T04:06:22;18.30;99.90
15143;DHT22;7672;50.834;6.286;2023-07-13T04:08:54;18.30;99.90
15143;DHT22;7672;50.834;6.286;2023-07-13T04:11:25;18.30;99.90
15143;DHT22;7672;50.834;6.286;2023-07-13T04:13:54;18.40;99.90
15143;DHT22;7672;50.834;6.286;2023-07-13T04:16:22;18.40;99.90
15143;DHT22;7672;50.834;6.286;2023-07-13T04:18:49;18.50;99.90
15143;DHT22;7672;50.834;6.286;2023-07-13T04:21:17;18.60;99.90
15143;DHT22;7672;50.834;6.286;2023-07-13T04:23:44;18.70;99.90
15143;DHT22;7672;50.834;6.286;2023-07-13T04:26:11;18.80;99.90
15143;DHT22;7672;50.834;6.286;2023-07-13T04:28:38;18.90;99.90
15143;DHT22;7672;50.834;6.286;2023-07-13T04:31:05;19.10;99.90
15143;DHT22;7672;50.834;6.286;2023-07-13T04:33:32;19.10;99.90
15143;DHT22;7672;50.834;6.286;2023-07-13T04:36:00;19.40;99.90
15143;DHT22;7672;50.834;6.286;2023-07-13T04:38:30;19.40;99.90
15143;DHT22;7672;50.834;6.286;2023-07-13T04:41:00;19.60;99.90
15143;DHT22;7672;50.834;6.286;2023-07-13T04:43:30;19.70;99.90
15143;DHT22;7672;50.834;6.286;2023-07-13T04:46:05;19.90;99.90
15143;DHT22;7672;50.834;6.286;2023-07-13T04:48:33;20.10;99.90
15143;DHT22;7672;50.834;6.286;2023-07-13T04:51:02;20.20;99.90
15143;DHT22;7672;50.834;6.286;2023-07-13T04:53:30;20.50;99.90
15143;DHT22;7672;50.834;6.286;2023-07-13T04:55:57;20.80;99.90
15143;DHT22;7672;50.834;6.286;2023-07-13T04:58:25;20.70;99.90
15143;DHT22;7672;50.834;6.286;2023-07-13T05:00:52;20.80;99.90
15143;DHT22;7672;50.834;6.286;2023-07-13T05:03:20;21.00;99.90
15143;DHT22;7672;50.834;6.286;2023-07-13T05:06:03;21.20;99.90
15143;DHT22;7672;50.834;6.286;2023-07-13T05:08:32;21.30;99.90
15143;DHT22;7672;50.834;6.286;2023-07-13T05:11:01;21.60;99.90
15143;DHT22;7672;50.834;6.286;2023-07-13T05:13:30;21.60;99.90
15143;DHT22;7672;50.834;6.286;2023-07-13T05:16:05;21.80;99.90
15143;DHT22;7672;50.834;6.286;2023-07-13T05:18:34;21.80;99.90
15143;DHT22;7672;50.834;6.286;2023-07-13T05:21:08;22.10;99.90
15143;DHT22;7672;50.834;6.286;2023-07-13T05:23:37;22.40;99.90
15143;DHT22;7672;50.834;6.286;2023-07-13T05:26:05;22.50;99.90
15143;DHT22;7672;50.834;6.286;2023-07-13T05:28:35;22.70;99.90
15143;DHT22;7672;50.834;6.286;2023-07-13T05:31:04;22.80;99.90
15143;DHT22;7672;50.834;6.286;2023-07-13T05:33:33;23.10;99.90
15143;DHT22;7672;50.834;6.286;2023-07-13T05:36:01;23.10;99.90
15143;DHT22;7672;50.834;6.286;2023-07-13T05:38:29;23.20;99.90
15143;DHT22;7672;50.834;6.286;2023-07-13T05:40:57;23.40;99.90
15143;DHT22;7672;50.834;6.286;2023-07-13T05:43:24;23.40;99.90
15143;DHT22;7672;50.834;6.286;2023-07-13T05:45:56;23.50;99.90
15143;DHT22;7672;50.834;6.286;2023-07-13T05:48:24;23.50;99.90
15143;DHT22;7672;50.834;6.286;2023-07-13T05:50:51;23.50;99.90
15143;DHT22;7672;50.834;6.286;2023-07-13T05:53:19;23.50;99.90
15143;DHT22;7672;50.834;6.286;2023-07-13T05:55:47;23.60;99.90
15143;DHT22;7672;50.834;6.286;2023-07-13T05:58:17;23.50;99.90
15143;DHT22;7672;50.834;6.286;2023-07-13T06:00:45;23.50;99.90
15143;DHT22;7672;50.834;6.286;2023-07-13T06:03:14;23.50;99.90
15143;DHT22;7672;50.834;6.286;2023-07-13T06:05:42;23.50;99.90
15143;DHT22;7672;50.834;6.286;2023-07-13T06:08:09;23.40;99.90
15143;DHT22;7672;50.834;6.286;2023-07-13T06:10:36;23.40;99.90
15143;DHT22;7672;50.834;6.286;2023-07-13T06:13:03;23.40;99.90
15143;DHT22;7672;50.834;6.286;2023-07-13T06:15:30;23.50;99.90
15143;DHT22;7672;50.834;6.286;2023-07-13T06:17:57;23.60;99.90
15143;DHT22;7672;50.834;6.286;2023-07-13T06:20:25;23.70;99.90
15143;DHT22;7672;50.834;6.286;2023-07-13T06:22:52;23.70;99.90
15143;DHT22;7672;50.834;6.286;2023-07-13T06:25:19;23.80;99.90
15143;DHT22;7672;50.834;6.286;2023-07-13T06:27:47;23.90;99.90
15143;DHT22;7672;50.834;6.286;2023-07-13T06:30:14;23.90;99.90
15143;DHT22;7672;50.834;6.286;2023-07-13T06:32:41;24.00;99.90
15143;DHT22;7672;50.834;6.286;2023-07-13T06:35:08;24.10;99.90
15143;DHT22;7672;50.834;6.286;2023-07-13T06:37:39;24.40;99.90
15143;DHT22;7672;50.834;6.286;2023-07-13T06:40:07;24.20;99.90
15143;DHT22;7672;50.834;6.286;2023-07-13T06:42:34;24.30;99.90
15143;DHT22;7672;50.834;6.286;2023-07-13T06:45:02;24.30;99.90
15143;DHT22;7672;50.834;6.286;2023-07-13T06:47:29;24.40;99.90
15143;DHT22;7672;50.834;6.286;2023-07-13T06:50:00;24.50;99.90
15143;DHT22;7672;50.834;6.286;2023-07-13T06:52:27;24.40;99.90
15143;DHT22;7672;50.834;6.286;2023-07-13T06:54:54;24.40;99.90
15143;DHT22;7672;50.834;6.286;2023-07-13T06:57:22;24.60;99.90
15143;DHT22;7672;50.834;6.286;2023-07-13T06:59:49;24.30;99.90
15143;DHT22;7672;50.834;6.286;2023-07-13T07:02:16;24.40;99.90
15143;DHT22;7672;50.834;6.286;2023-07-13T07:04:43;24.50;99.90
15143;DHT22;7672;50.834;6.286;2023-07-13T07:07:10;24.30;99.90
15143;DHT22;7672;50.834;6.286;2023-07-13T07:09:37;24.30;99.90
15143;DHT22;7672;50.834;6.286;2023-07-13T07:12:04;24.40;99.90
15143;DHT22;7672;50.834;6.286;2023-07-13T07:14:32;24.40;99.90
15143;DHT22;7672;50.834;6.286;2023-07-13T07:17:01;24.40;99.90
15143;DHT22;7672;50.834;6.286;2023-07-13T07:19:29;24.40;99.90
15143;DHT22;7672;50.834;6.286;2023-07-13T07:21:57;24.40;99.90
15143;DHT22;7672;50.834;6.286;2023-07-13T07:24:24;24.50;99.90
15143;DHT22;7672;50.834;6.286;2023-07-13T07:26:51;24.50;99.90
15143;DHT22;7672;50.834;6.286;2023-07-13T07:29:22;24.50;99.90
15143;DHT22;7672;50.834;6.286;2023-07-13T07:31:52;24.60;99.90
15143;DHT22;7672;50.834;6.286;2023-07-13T07:34:22;24.70;99.90
15143;DHT22;7672;50.834;6.286;2023-07-13T07:36:49;24.90;99.90
15143;DHT22;7672;50.834;6.286;2023-07-13T07:39:19;25.00;99.90
15143;DHT22;7672;50.834;6.286;2023-07-13T07:41:46;25.10;99.90
15143;DHT22;7672;50.834;6.286;2023-07-13T07:44:16;25.20;99.90
15143;DHT22;7672;50.834;6.286;2023-07-13T07:46:43;25.30;99.90
15143;DHT22;7672;50.834;6.286;2023-07-13T07:49:12;25.50;99.90
15143;DHT22;7672;50.834;6.286;2023-07-13T07:51:39;25.70;99.90
15143;DHT22;7672;50.834;6.286;2023-07-13T07:54:07;25.80;99.90
15143;DHT22;7672;50.834;6.286;2023-07-13T07:56:34;25.90;99.90
15143;DHT22;7672;50.834;6.286;2023-07-13T07:59:04;26.10;99.90
15143;DHT22;7672;50.834;6.286;2023-07-13T08:01:34;26.40;99.90
15143;DHT22;7672;50.834;6.286;2023-07-13T08:04:04;26.60;99.90
15143;DHT22;7672;50.834;6.286;2023-07-13T08:06:34;26.80;99.90
15143;DHT22;7672;50.834;6.286;2023-07-13T08:09:04;26.90;99.90
15143;DHT22;7672;50.834;6.286;2023-07-13T08:11:31;27.00;99.90
15143;DHT22;7672;50.834;6.286;2023-07-13T08:14:01;27.20;99.90
15143;DHT22;7672;50.834;6.286;2023-07-13T08:16:28;27.30;99.90
15143;DHT22;7672;50.834;6.286;2023-07-13T08:18:56;27.50;99.90
15143;DHT22;7672;50.834;6.286;2023-07-13T08:21:23;27.60;99.90
15143;DHT22;7672;50.834;6.286;2023-07-13T08:23:50;27.80;99.90
15143;DHT22;7672;50.834;6.286;2023-07-13T08:26:17;27.80;99.90
15143;DHT22;7672;50.834;6.286;2023-07-13T08:28:44;27.90;99.90
15143;DHT22;7672;50.834;6.286;2023-07-13T08:31:11;28.20;99.90
15143;DHT22;7672;50.834;6.286;2023-07-13T08:33:39;28.40;99.90
15143;DHT22;7672;50.834;6.286;2023-07-13T08:36:07;28.50;99.90
15143;DHT22;7672;50.834;6.286;2023-07-13T08:38:34;28.70;99.90
15143;DHT22;7672;50.834;6.286;2023-07-13T08:41:11;28.90;99.80
15143;DHT22;7672;50.834;6.286;2023-07-13T08:43:41;28.90;99.00
15143;DHT22;7672;50.834;6.286;2023-07-13T08:46:21;29.00;98.80
15143;DHT22;7672;50.834;6.286;2023-07-13T08:48:57;29.00;98.40
15143;DHT22;7672;50.834;6.286;2023-07-13T08:54:38;29.00;97.70
15143;DHT22;7672;50.834;6.286;2023-07-13T08:57:14;29.10;97.70
15143;DHT22;7672;50.834;6.286;2023-07-13T08:59:47;29.40;97.60
15143;DHT22;7672;50.834;6.286;2023-07-13T09:02:25;29.50;97.40
15143;DHT22;7672;50.834;6.286;2023-07-13T09:04:56;29.70;96.90
15143;DHT22;7672;50.834;6.286;2023-07-13T09:10:46;30.00;95.90
15143;DHT22;7672;50.834;6.286;2023-07-13T09:16:29;30.90;95.50
15143;DHT22;7672;50.834;6.286;2023-07-13T09:19:01;31.40;94.40
15143;DHT22;7672;50.834;6.286;2023-07-13T09:21:38;31.90;94.00
15143;DHT22;7672;50.834;6.286;2023-07-13T09:24:34;32.50;92.60
15143;DHT22;7672;50.834;6.286;2023-07-13T09:27:19;32.90;92.50
15143;DHT22;7672;50.834;6.286;2023-07-13T09:29:57;33.20;90.80
15143;DHT22;7672;50.834;6.286;2023-07-13T09:32:34;33.30;89.60
15143;DHT22;7672;50.834;6.286;2023-07-13T09:35:11;33.30;90.10
15143;DHT22;7672;50.834;6.286;2023-07-13T09:37:39;33.40;88.60
15143;DHT22;7672;50.834;6.286;2023-07-13T09:43:13;33.60;87.20
15143;DHT22;7672;50.834;6.286;2023-07-13T09:45:46;33.70;87.00
15143;DHT22;7672;50.834;6.286;2023-07-13T09:48:17;33.70;86.50
15143;DHT22;7672;50.834;6.286;2023-07-13T09:50:45;33.70;86.60
15143;DHT22;7672;50.834;6.286;2023-07-13T09:53:14;33.60;85.80
15143;DHT22;7672;50.834;6.286;2023-07-13T09:55:46;33.70;85.50
15143;DHT22;7672;50.834;6.286;2023-07-13T09:58:25;33.60;85.40
15143;DHT22;7672;50.834;6.286;2023-07-13T10:00:58;33.70;84.20
15143;DHT22;7672;50.834;6.286;2023-07-13T10:03:34;33.70;84.50
15143;DHT22;7672;50.834;6.286;2023-07-13T10:06:20;33.70;84.50
15143;DHT22;7672;50.834;6.286;2023-07-13T10:08:51;33.70;84.00
15143;DHT22;7672;50.834;6.286;2023-07-13T10:11:21;33.60;83.40
15143;DHT22;7672;50.834;6.286;2023-07-13T10:13:58;33.50;82.80
15143;DHT22;7672;50.834;6.286;2023-07-13T10:16:29;33.40;83.10
15143;DHT22;7672;50.834;6.286;2023-07-13T10:19:03;33.40;83.40
15143;DHT22;7672;50.834;6.286;2023-07-13T10:21:39;33.40;83.40
15143;DHT22;7672;50.834;6.286;2023-07-13T10:27:15;33.80;83.10
15143;DHT22;7672;50.834;6.286;2023-07-13T10:29:50;34.00;82.70
15143;DHT22;7672;50.834;6.286;2023-07-13T10:32:24;34.20;80.70
15143;DHT22;7672;50.834;6.286;2023-07-13T10:34:51;34.20;80.30
15143;DHT22;7672;50.834;6.286;2023-07-13T10:37:22;34.10;79.90
15143;DHT22;7672;50.834;6.286;2023-07-13T10:39:56;34.00;79.00
15143;DHT22;7672;50.834;6.286;2023-07-13T10:42:37;33.80;79.20
15143;DHT22;7672;50.834;6.286;2023-07-13T10:45:17;33.50;79.10
15143;DHT22;7672;50.834;6.286;2023-07-13T10:47:48;33.20;79.50
15143;DHT22;7672;50.834;6.286;2023-07-13T10:50:20;33.00;79.80
15143;DHT22;7672;50.834;6.286;2023-07-13T10:52:51;32.70;81.20
15143;DHT22;7672;50.834;6.286;2023-07-13T10:55:41;32.40;80.50
15143;DHT22;7672;50.834;6.286;2023-07-13T11:01:14;31.90;81.60
15143;DHT22;7672;50.834;6.286;2023-07-13T11:03:59;31.70;81.50
15143;DHT22;7672;50.834;6.286;2023-07-13T11:06:41;31.50;82.30
15143;DHT22;7672;50.834;6.286;2023-07-13T11:11:58;31.20;83.00
15143;DHT22;7672;50.834;6.286;2023-07-13T11:14:37;31.00;83.90
15143;DHT22;7672;50.834;6.286;2023-07-13T11:22:45;30.70;85.10
15143;DHT22;7672;50.834;6.286;2023-07-13T11:25:33;30.80;84.70
15143;DHT22;7672;50.834;6.286;2023-07-13T11:38:32;30.80;82.70
15143;DHT22;7672;50.834;6.286;2023-07-13T11:41:19;30.70;82.50
15143;DHT22;7672;50.834;6.286;2023-07-13T11:43:50;30.60;82.70
15143;DHT22;7672;50.834;6.286;2023-07-13T11:46:27;30.50;83.20
15143;DHT22;7672;50.834;6.286;2023-07-13T11:48:55;30.30;83.60
15143;DHT22;7672;50.834;6.286;2023-07-13T11:51:28;30.10;83.80
15143;DHT22;7672;50.834;6.286;2023-07-13T11:54:05;30.00;83.30
15143;DHT22;7672;50.834;6.286;2023-07-13T11:56:40;29.90;84.00
15143;DHT22;7672;50.834;6.286;2023-07-13T11:59:10;29.70;84.00
15143;DHT22;7672;50.834;6.286;2023-07-13T12:01:48;29.70;84.00
15143;DHT22;7672;50.834;6.286;2023-07-13T12:04:30;29.70;84.40
15143;DHT22;7672;50.834;6.286;2023-07-13T12:07:30;29.60;85.10
15143;DHT22;7672;50.834;6.286;2023-07-13T12:10:22;29.60;85.20
15143;DHT22;7672;50.834;6.286;2023-07-13T12:13:12;29.70;85.00
15143;DHT22;7672;50.834;6.286;2023-07-13T12:15:46;29.80;85.20
15143;DHT22;7672;50.834;6.286;2023-07-13T12:18:19;29.90;84.70
15143;DHT22;7672;50.834;6.286;2023-07-13T12:20:49;30.00;85.00
15143;DHT22;7672;50.834;6.286;2023-07-13T12:23:32;30.10;85.00
15143;DHT22;7672;50.834;6.286;2023-07-13T12:26:03;30.20;84.30
15143;DHT22;7672;50.834;6.286;2023-07-13T12:28:39;30.40;83.70
15143;DHT22;7672;50.834;6.286;2023-07-13T12:31:42;30.50;83.00
15143;DHT22;7672;50.834;6.286;2023-07-13T12:34:14;30.70;82.00
15143;DHT22;7672;50.834;6.286;2023-07-13T12:36:51;30.80;80.70
15143;DHT22;7672;50.834;6.286;2023-07-13T12:39:23;30.90;80.60
15143;DHT22;7672;50.834;6.286;2023-07-13T12:45:02;31.10;81.50
15143;DHT22;7672;50.834;6.286;2023-07-13T12:47:43;31.20;81.80
15143;DHT22;7672;50.834;6.286;2023-07-13T12:50:16;31.30;81.10
15143;DHT22;7672;50.834;6.286;2023-07-13T12:52:59;31.40;80.90
15143;DHT22;7672;50.834;6.286;2023-07-13T12:55:30;31.40;80.60
15143;DHT22;7672;50.834;6.286;2023-07-13T12:58:03;31.50;81.60
15143;DHT22;7672;50.834;6.286;2023-07-13T13:00:35;31.50;79.40
15143;DHT22;7672;50.834;6.286;2023-07-13T13:03:12;31.60;79.70
15143;DHT22;7672;50.834;6.286;2023-07-13T13:06:04;31.60;78.60
15143;DHT22;7672;50.834;6.286;2023-07-13T13:08:54;31.60;79.30
15143;DHT22;7672;50.834;6.286;2023-07-13T13:11:25;31.60;78.30
15143;DHT22;7672;50.834;6.286;2023-07-13T13:13:55;31.60;78.70
15143;DHT22;7672;50.834;6.286;2023-07-13T13:18:56;31.60;78.10
15143;DHT22;7672;50.834;6.286;2023-07-13T13:21:24;31.70;78.50
15143;DHT22;7672;50.834;6.286;2023-07-13T13:23:52;31.70;78.60
15143;DHT22;7672;50.834;6.286;2023-07-13T13:26:22;31.70;77.80
15143;DHT22;7672;50.834;6.286;2023-07-13T13:28:49;31.60;78.40
15143;DHT22;7672;50.834;6.286;2023-07-13T13:31:16;31.60;78.80
15143;DHT22;7672;50.834;6.286;2023-07-13T13:33:45;31.60;78.80
15143;DHT22;7672;50.834;6.286;2023-07-13T13:36:17;31.50;77.80
15143;DHT22;7672;50.834;6.286;2023-07-13T13:38:47;31.50;77.80
15143;DHT22;7672;50.834;6.286;2023-07-13T13:41:16;31.40;78.10
15143;DHT22;7672;50.834;6.286;2023-07-13T13:43:44;31.40;77.70
15143;DHT22;7672;50.834;6.286;2023-07-13T13:46:24;31.40;76.90
15143;DHT22;7672;50.834;6.286;2023-07-13T13:48:57;31.30;77.60
15143;DHT22;7672;50.834;6.286;2023-07-13T13:51:24;31.30;77.60
15143;DHT22;7672;50.834;6.286;2023-07-13T13:53:52;31.20;77.80
15143;DHT22;7672;50.834;6.286;2023-07-13T13:56:20;31.20;77.80
15143;DHT22;7672;50.834;6.286;2023-07-13T13:58:47;31.20;77.50
15143;DHT22;7672;50.834;6.286;2023-07-13T14:01:20;31.20;78.50
15143;DHT22;7672;50.834;6.286;2023-07-13T14:03:50;31.10;78.20
15143;DHT22;7672;50.834;6.286;2023-07-13T14:06:20;31.20;78.20
15143;DHT22;7672;50.834;6.286;2023-07-13T14:08:47;31.10;77.70
15143;DHT22;7672;50.834;6.286;2023-07-13T14:11:17;31.10;78.30
15143;DHT22;7672;50.834;6.286;2023-07-13T14:13:57;31.10;77.50
15143;DHT22;7672;50.834;6.286;2023-07-13T14:16:28;31.10;77.80
15143;DHT22;7672;50.834;6.286;2023-07-13T14:18:58;31.10;78.00
15143;DHT22;7672;50.834;6.286;2023-07-13T14:21:28;31.10;77.40
15143;DHT22;7672;50.834;6.286;2023-07-13T14:23:56;31.10;78.30
15143;DHT22;7672;50.834;6.286;2023-07-13T14:26:25;31.00;78.00
15143;DHT22;7672;50.834;6.286;2023-07-13T14:28:55;31.00;77.90
15143;DHT22;7672;50.834;6.286;2023-07-13T14:31:26;30.90;77.80
15143;DHT22;7672;50.834;6.286;2023-07-13T14:33:57;30.90;77.90
15143;DHT22;7672;50.834;6.286;2023-07-13T14:36:31;30.90;77.30
15143;DHT22;7672;50.834;6.286;2023-07-13T14:39:33;30.90;77.80
15143;DHT22;7672;50.834;6.286;2023-07-13T14:42:00;30.80;77.20
15143;DHT22;7672;50.834;6.286;2023-07-13T14:44:29;30.80;77.40
15143;DHT22;7672;50.834;6.286;2023-07-13T14:46:58;30.70;77.30
15143;DHT22;7672;50.834;6.286;2023-07-13T14:49:32;30.60;77.10
15143;DHT22;7672;50.834;6.286;2023-07-13T14:52:10;30.50;77.40
15143;DHT22;7672;50.834;6.286;2023-07-13T14:54:42;30.40;77.10
15143;DHT22;7672;50.834;6.286;2023-07-13T14:57:16;30.30;77.10
15143;DHT22;7672;50.834;6.286;2023-07-13T14:59:46;30.20;76.80
15143;DHT22;7672;50.834;6.286;2023-07-13T15:02:37;30.10;77.30
15143;DHT22;7672;50.834;6.286;2023-07-13T15:05:16;30.00;77.50
15143;DHT22;7672;50.834;6.286;2023-07-13T15:07:45;29.90;77.80
15143;DHT22;7672;50.834;6.286;2023-07-13T15:10:21;29.80;77.90
15143;DHT22;7672;50.834;6.286;2023-07-13T15:12:51;29.60;77.80
15143;DHT22;7672;50.834;6.286;2023-07-13T15:15:20;29.50;78.10
15143;DHT22;7672;50.834;6.286;2023-07-13T15:17:47;29.30;78.40
15143;DHT22;7672;50.834;6.286;2023-07-13T15:20:29;29.10;78.50
15143;DHT22;7672;50.834;6.286;2023-07-13T15:23:00;29.00;79.10
15143;DHT22;7672;50.834;6.286;2023-07-13T15:25:31;28.90;79.30
15143;DHT22;7672;50.834;6.286;2023-07-13T15:28:00;28.70;79.80
15143;DHT22;7672;50.834;6.286;2023-07-13T15:30:48;28.50;81.20
15143;DHT22;7672;50.834;6.286;2023-07-13T15:33:30;28.30;82.10
15143;DHT22;7672;50.834;6.286;2023-07-13T15:35:57;28.20;83.20
15143;DHT22;7672;50.834;6.286;2023-07-13T15:38:29;27.90;83.70
15143;DHT22;7672;50.834;6.286;2023-07-13T15:40:58;27.70;84.90
15143;DHT22;7672;50.834;6.286;2023-07-13T15:43:26;27.60;85.10
15143;DHT22;7672;50.834;6.286;2023-07-13T15:45:53;27.50;85.60
15143;DHT22;7672;50.834;6.286;2023-07-13T15:48:21;27.40;86.20
15143;DHT22;7672;50.834;6.286;2023-07-13T15:51:00;27.20;86.70
15143;DHT22;7672;50.834;6.286;2023-07-13T15:53:34;27.10;87.40
15143;DHT22;7672;50.834;6.286;2023-07-13T15:56:23;27.00;87.40
15143;DHT22;7672;50.834;6.286;2023-07-13T15:58:52;26.90;88.70
15143;DHT22;7672;50.834;6.286;2023-07-13T16:01:22;26.80;88.00
15143;DHT22;7672;50.834;6.286;2023-07-13T16:03:50;26.80;88.50
15143;DHT22;7672;50.834;6.286;2023-07-13T16:06:29;26.70;89.20
15143;DHT22;7672;50.834;6.286;2023-07-13T16:09:01;26.60;89.70
15143;DHT22;7672;50.834;6.286;2023-07-13T16:11:38;26.50;90.00
15143;DHT22;7672;50.834;6.286;2023-07-13T16:14:06;26.50;90.30
15143;DHT22;7672;50.834;6.286;2023-07-13T16:16:34;26.40;90.30
15143;DHT22;7672;50.834;6.286;2023-07-13T16:19:04;26.40;90.90
15143;DHT22;7672;50.834;6.286;2023-07-13T16:21:35;26.30;91.10
15143;DHT22;7672;50.834;6.286;2023-07-13T16:24:18;26.40;91.20
15143;DHT22;7672;50.834;6.286;2023-07-13T16:26:48;26.40;91.20
15143;DHT22;7672;50.834;6.286;2023-07-13T16:29:21;26.50;91.30
15143;DHT22;7672;50.834;6.286;2023-07-13T16:34:39;26.50;91.50
15143;DHT22;7672;50.834;6.286;2023-07-13T16:37:28;26.60;91.50
15143;DHT22;7672;50.834;6.286;2023-07-13T16:39:59;26.60;91.60
15143;DHT22;7672;50.834;6.286;2023-07-13T16:42:27;26.60;92.10
15143;DHT22;7672;50.834;6.286;2023-07-13T16:44:54;26.60;91.70
15143;DHT22;7672;50.834;6.286;2023-07-13T16:47:23;26.60;91.80
15143;DHT22;7672;50.834;6.286;2023-07-13T16:49:50;26.60;91.40
15143;DHT22;7672;50.834;6.286;2023-07-13T16:52:18;26.60;91.20
15143;DHT22;7672;50.834;6.286;2023-07-13T16:54:49;26.60;91.20
15143;DHT22;7672;50.834;6.286;2023-07-13T16:57:31;26.60;91.00